Terminal Aerodrome Forecast
Issued by NWS

Home | Current Version | Previous Version | Text Only | Print | Product List | Glossary On
Versions: 1 2 3 4 5 6 7 8 9 10 11 12 13 14 15 16 17 18 19 20 21 22 23 24
000
FTUS43 KDLH 090523
TAFHYR
TAF
KHYR 090523Z 0906/1006 30005KT P6SM -SHSN SCT015 BKN030
      TEMPO 0906/0910 BKN035
     FM091400 26004KT P6SM SCT025 BKN035
     FM091900 26004KT P6SM SCT015 BKN025=

USA.gov is the U.S. government's official web portal to all federal, state and local government web resources and services.